createdAt,value
2017-12-24T00:01:56.667Z,101475.73
2017-12-24T00:04:24.248Z,101479.53
2017-12-24T00:06:51.892Z,101492.61
2017-12-24T00:09:19.495Z,101477.97
2017-12-24T00:11:47.100Z,101472.91
2017-12-24T00:14:14.765Z,101464.20
2017-12-24T00:16:42.353Z,101451.94
2017-12-24T00:19:09.948Z,101458.28
2017-12-24T00:21:37.573Z,101462.20
2017-12-24T00:24:05.539Z,101456.99
2017-12-24T00:26:33.164Z,101463.30
2017-12-24T00:29:00.762Z,101461.84
2017-12-24T00:31:28.376Z,101463.82
2017-12-24T00:33:56.279Z,101464.84
2017-12-24T00:36:24.133Z,101461.91
2017-12-24T00:38:51.728Z,101478.34
2017-12-24T00:41:19.357Z,101484.09
2017-12-24T00:43:46.935Z,101471.18
2017-12-24T00:46:14.519Z,101485.27
2017-12-24T00:48:42.153Z,101474.33
2017-12-24T00:51:09.731Z,101475.08
2017-12-24T00:53:37.575Z,101481.70
2017-12-24T00:56:05.220Z,101477.42
2017-12-24T00:58:32.812Z,101480.06
2017-12-24T01:01:00.380Z,101470.45
2017-12-24T01:03:28.003Z,101483.94
2017-12-24T01:05:55.596Z,101486.95
2017-12-24T01:08:23.246Z,101479.28
2017-12-24T01:10:50.860Z,101493.19
2017-12-24T01:13:18.484Z,101488.77
2017-12-24T01:15:46.438Z,101475.14
2017-12-24T01:18:14.031Z,101488.14
2017-12-24T01:20:41.656Z,101488.55
2017-12-24T01:23:09.246Z,101487.44
2017-12-24T01:25:36.836Z,101470.03
2017-12-24T01:28:04.750Z,101482.67
2017-12-24T01:30:32.623Z,101494.03
2017-12-24T01:33:00.255Z,101487.50
2017-12-24T01:35:27.841Z,101492.77
2017-12-24T01:37:55.449Z,101495.59
2017-12-24T01:40:23.065Z,101494.09
2017-12-24T01:42:50.693Z,101489.05
2017-12-24T01:45:18.315Z,101495.34
2017-12-24T01:47:51.784Z,101489.84
2017-12-24T01:50:19.434Z,101490.31
2017-12-24T01:52:47.039Z,101494.16
2017-12-24T01:55:14.650Z,101481.84
2017-12-24T01:57:42.276Z,101496.92
2017-12-24T02:00:09.870Z,101473.20
2017-12-24T02:02:37.500Z,101482.36
2017-12-24T02:05:05.101Z,101462.37
2017-12-24T02:07:32.688Z,101455.93
2017-12-24T02:10:00.312Z,101446.38
2017-12-24T02:12:28.216Z,101450.33
2017-12-24T02:14:55.849Z,101426.14
2017-12-24T02:17:23.456Z,101421.92
2017-12-24T02:19:51.062Z,101430.05
2017-12-24T02:22:18.686Z,101429.84
2017-12-24T02:24:46.276Z,101422.95
2017-12-24T02:27:14.193Z,101424.63
2017-12-24T02:29:41.803Z,101415.60
2017-12-24T02:32:09.401Z,101419.16
2017-12-24T02:34:37.024Z,101414.39
2017-12-24T02:37:04.634Z,101416.77
2017-12-24T02:39:32.258Z,101403.93
2017-12-24T02:41:59.891Z,101388.34
2017-12-24T02:44:27.474Z,101404.48
2017-12-24T02:46:55.100Z,101392.27
2017-12-24T02:49:22.693Z,101403.66
2017-12-24T02:51:50.621Z,101387.59
2017-12-24T02:54:18.477Z,101385.26
2017-12-24T02:56:46.363Z,101399.17
2017-12-24T02:59:13.984Z,101406.67
2017-12-24T03:01:41.599Z,101382.83
2017-12-24T03:04:09.261Z,101387.28
2017-12-24T03:06:36.894Z,101390.25
2017-12-24T03:09:04.481Z,101402.67
2017-12-24T03:11:32.112Z,101407.55
2017-12-24T03:13:59.694Z,101407.29
2017-12-24T03:16:27.312Z,101406.45
2017-12-24T03:18:54.908Z,101412.97
2017-12-24T03:21:22.500Z,101401.31
2017-12-24T03:23:50.142Z,101404.70
2017-12-24T03:26:17.755Z,101427.75
2017-12-24T03:28:45.380Z,101401.31
2017-12-24T03:31:12.965Z,101401.31
2017-12-24T03:33:40.567Z,101387.75
2017-12-24T03:36:08.169Z,101398.41
2017-12-24T03:38:36.027Z,101403.86
2017-12-24T03:41:03.993Z,101397.47
2017-12-24T03:43:31.965Z,101394.30
2017-12-24T03:45:59.546Z,101386.98
2017-12-24T03:48:27.170Z,101389.38
2017-12-24T03:50:54.765Z,101396.16
2017-12-24T03:53:22.429Z,101395.70
2017-12-24T03:55:50.033Z,101394.57
2017-12-24T03:58:17.626Z,101386.22
2017-12-24T04:00:45.247Z,101404.39
2017-12-24T04:03:13.155Z,101408.24
2017-12-24T04:05:40.783Z,101402.38
2017-12-24T04:08:08.400Z,101401.95
2017-12-24T04:10:36.007Z,101403.67
2017-12-24T04:13:03.622Z,101410.80
2017-12-24T04:15:31.224Z,101393.77
2017-12-24T04:17:58.852Z,101402.07
2017-12-24T04:20:26.805Z,101433.96
2017-12-24T04:22:54.669Z,101407.29
2017-12-24T04:25:22.293Z,101427.68
2017-12-24T04:27:50.200Z,101443.57
2017-12-24T04:30:17.841Z,101432.90
2017-12-24T04:32:45.514Z,101444.48
2017-12-24T04:35:13.109Z,101455.41
2017-12-24T04:37:40.723Z,101458.20
2017-12-24T04:40:08.301Z,101454.55
2017-12-24T04:42:35.929Z,101441.58
2017-12-24T04:45:03.525Z,101444.74
2017-12-24T04:47:31.133Z,101442.77
2017-12-24T04:49:58.756Z,101451.33
2017-12-24T04:52:26.348Z,101460.09
2017-12-24T04:54:53.986Z,101455.41
2017-12-24T04:57:21.587Z,101447.70
2017-12-24T04:59:49.170Z,101456.98
2017-12-24T05:02:17.072Z,101447.41
2017-12-24T05:04:44.666Z,101452.52
2017-12-24T05:07:12.297Z,101452.93
2017-12-24T05:09:39.895Z,101454.95
2017-12-24T05:12:07.481Z,101455.83
2017-12-24T05:14:35.389Z,101470.58
2017-12-24T05:17:02.976Z,101466.86
2017-12-24T05:19:30.601Z,101471.34
2017-12-24T05:21:58.263Z,101466.73
2017-12-24T05:24:25.869Z,101475.83
2017-12-24T05:26:53.505Z,101468.73
2017-12-24T05:29:21.100Z,101460.40
2017-12-24T05:31:48.728Z,101459.83
2017-12-24T05:34:16.328Z,101456.25
2017-12-24T05:36:43.908Z,101455.49
2017-12-24T05:39:11.554Z,101457.66
2017-12-24T05:41:39.204Z,101453.59
2017-12-24T05:44:06.837Z,101452.87
2017-12-24T05:46:34.433Z,101461.94
2017-12-24T05:49:02.074Z,101457.47
2017-12-24T05:51:29.751Z,101452.87
2017-12-24T05:53:57.336Z,101456.06
2017-12-24T05:56:24.972Z,101457.40
2017-12-24T05:58:52.559Z,101459.00
2017-12-24T06:01:20.486Z,101471.56
2017-12-24T06:03:48.953Z,101466.46
2017-12-24T06:06:16.843Z,101459.30
2017-12-24T06:08:44.476Z,101456.75
2017-12-24T06:11:12.104Z,101456.28
2017-12-24T06:13:40.339Z,101464.39
2017-12-24T06:16:07.955Z,101453.09
2017-12-24T06:18:35.542Z,101457.42
2017-12-24T06:21:03.211Z,101450.52
2017-12-24T06:23:31.116Z,101456.25
2017-12-24T06:25:58.706Z,101458.08
2017-12-24T06:28:26.323Z,101461.01
2017-12-24T06:30:53.908Z,101460.55
2017-12-24T06:33:21.547Z,101458.38
2017-12-24T06:35:49.405Z,101474.77
2017-12-24T06:38:16.999Z,101455.91
2017-12-24T06:40:44.933Z,101457.05
2017-12-24T06:43:12.540Z,101462.88
2017-12-24T06:45:40.184Z,101460.39
2017-12-24T06:48:07.806Z,101457.39
2017-12-24T06:50:35.687Z,101455.83
2017-12-24T06:53:03.341Z,101458.66
2017-12-24T06:55:30.937Z,101463.07
2017-12-24T06:57:58.572Z,101456.04
2017-12-24T07:00:26.181Z,101457.03
2017-12-24T07:02:53.796Z,101460.88
2017-12-24T07:05:21.443Z,101447.58
2017-12-24T07:07:49.044Z,101448.38
2017-12-24T07:10:16.675Z,101440.95
2017-12-24T07:12:44.555Z,101454.07
2017-12-24T07:15:12.152Z,101451.48
2017-12-24T07:17:40.081Z,101451.13
2017-12-24T07:20:07.668Z,101461.92
2017-12-24T07:22:35.299Z,101436.82
2017-12-24T07:25:02.906Z,101446.38
2017-12-24T07:27:30.516Z,101441.08
2017-12-24T07:29:58.155Z,101446.63
2017-12-24T07:32:26.069Z,101439.20
2017-12-24T07:34:53.728Z,101441.73
2017-12-24T07:37:21.327Z,101447.18
2017-12-24T07:39:48.925Z,101437.73
2017-12-24T07:42:16.548Z,101436.82
2017-12-24T07:44:44.139Z,101428.59
2017-12-24T07:47:11.792Z,101433.13
2017-12-24T07:49:39.387Z,101441.08
2017-12-24T07:52:07.264Z,101444.75
2017-12-24T07:54:34.880Z,101439.56
2017-12-24T07:57:02.476Z,101436.17
2017-12-24T07:59:30.067Z,101440.67
2017-12-24T08:01:57.685Z,101436.75
2017-12-24T08:04:25.582Z,101434.72
2017-12-24T08:06:53.449Z,101430.99
2017-12-24T08:09:21.087Z,101439.91
2017-12-24T08:11:48.696Z,101438.34
2017-12-24T08:14:16.288Z,101433.05
2017-12-24T08:16:43.916Z,101441.81
2017-12-24T08:19:11.508Z,101439.61
2017-12-24T08:21:39.097Z,101446.01
2017-12-24T08:24:06.719Z,101436.55
2017-12-24T08:26:34.308Z,101435.83
2017-12-24T08:29:01.951Z,101430.99
2017-12-24T08:31:29.544Z,101428.09
2017-12-24T08:33:57.131Z,101436.09
2017-12-24T08:36:24.752Z,101434.45
2017-12-24T08:38:52.340Z,101424.05
2017-12-24T08:41:19.974Z,101425.66
2017-12-24T08:43:47.882Z,101429.84
2017-12-24T08:46:15.502Z,101427.14
2017-12-24T08:48:43.122Z,101430.16
2017-12-24T08:51:10.714Z,101435.19
2017-12-24T08:53:38.402Z,101435.49
2017-12-24T08:56:06.010Z,101435.83
2017-12-24T08:58:33.700Z,101442.08
2017-12-24T09:01:01.333Z,101428.39
2017-12-24T09:03:29.300Z,101440.40
2017-12-24T09:05:57.269Z,101440.47
2017-12-24T09:08:24.882Z,101446.84
2017-12-24T09:10:52.468Z,101448.40
2017-12-24T09:13:20.071Z,101452.83
2017-12-24T09:15:47.715Z,101444.87
2017-12-24T09:18:15.367Z,101450.13
2017-12-24T09:20:42.953Z,101447.69
2017-12-24T09:23:10.544Z,101446.86
2017-12-24T09:25:38.168Z,101460.12
2017-12-24T09:28:05.818Z,101449.75
2017-12-24T09:30:33.460Z,101435.46
2017-12-24T09:33:01.099Z,101437.40
2017-12-24T09:35:28.712Z,101439.12
2017-12-24T09:37:56.678Z,101438.13
2017-12-24T09:40:24.544Z,101438.81
2017-12-24T09:42:52.193Z,101441.48
2017-12-24T09:45:20.077Z,101441.91
2017-12-24T09:47:47.655Z,101434.13
2017-12-24T09:50:15.609Z,101432.80
2017-12-24T09:52:43.200Z,101434.55
2017-12-24T09:55:10.825Z,101444.30
2017-12-24T09:57:38.416Z,101432.75
2017-12-24T10:00:06.006Z,101425.55
2017-12-24T10:02:33.636Z,101430.35
2017-12-24T10:05:01.480Z,101434.28
2017-12-24T10:07:29.116Z,101430.20
2017-12-24T10:09:56.723Z,101421.36
2017-12-24T10:12:24.564Z,101416.22
2017-12-24T10:14:52.230Z,101413.20
2017-12-24T10:17:19.844Z,101418.53
2017-12-24T10:19:47.503Z,101400.25
2017-12-24T10:22:15.146Z,101402.95
2017-12-24T10:24:42.748Z,101394.38
2017-12-24T10:27:10.777Z,101406.30
2017-12-24T10:29:38.379Z,101406.37
2017-12-24T10:32:06.011Z,101402.64
2017-12-24T10:34:33.660Z,101397.76
2017-12-24T10:37:01.300Z,101395.66
2017-12-24T10:39:28.923Z,101390.22
2017-12-24T10:41:56.525Z,101387.05
2017-12-24T10:44:24.158Z,101380.39
2017-12-24T10:46:51.750Z,101381.98
2017-12-24T10:49:19.627Z,101379.73
2017-12-24T10:51:47.248Z,101387.23
2017-12-24T10:54:14.917Z,101381.09
2017-12-24T10:56:42.562Z,101384.80
2017-12-24T10:59:10.163Z,101388.79
2017-12-24T11:01:37.779Z,101382.66
2017-12-24T11:04:05.641Z,101384.73
2017-12-24T11:06:33.241Z,101379.42
2017-12-24T11:09:00.904Z,101377.69
2017-12-24T11:11:28.521Z,101379.37
2017-12-24T11:13:56.147Z,101380.98
2017-12-24T11:16:23.813Z,101378.89
2017-12-24T11:18:51.409Z,101371.80
2017-12-24T11:21:19.045Z,101376.91
2017-12-24T11:23:46.652Z,101384.68
2017-12-24T11:26:14.247Z,101371.47
2017-12-24T11:28:41.872Z,101366.63
2017-12-24T11:31:09.505Z,101364.06
2017-12-24T11:33:37.152Z,101358.70
2017-12-24T11:36:04.749Z,101367.35
2017-12-24T11:38:32.686Z,101344.11
2017-12-24T11:41:00.299Z,101343.01
2017-12-24T11:43:28.235Z,101349.33
2017-12-24T11:45:55.865Z,101342.51
2017-12-24T11:48:23.450Z,101337.52
2017-12-24T11:50:51.045Z,101338.35
2017-12-24T11:53:18.790Z,101328.56
2017-12-24T11:55:46.401Z,101326.69
2017-12-24T11:58:14.072Z,101311.94
2017-12-24T12:00:41.704Z,101323.34
2017-12-24T12:03:09.316Z,101319.47
2017-12-24T12:05:36.975Z,101310.78
2017-12-24T12:08:04.588Z,101309.87
2017-12-24T12:10:32.280Z,101307.04
2017-12-24T12:12:59.880Z,101310.63
2017-12-24T12:15:27.556Z,101309.68
2017-12-24T12:17:55.257Z,101302.34
2017-12-24T12:20:22.855Z,101297.76
2017-12-24T12:22:50.524Z,101296.77
2017-12-24T12:25:18.248Z,101301.86
2017-12-24T12:27:45.877Z,101286.16
2017-12-24T12:30:13.491Z,101300.52
2017-12-24T12:32:41.128Z,101302.36
2017-12-24T12:35:08.759Z,101300.94
2017-12-24T12:37:36.374Z,101299.75
2017-12-24T12:40:03.959Z,101302.09
2017-12-24T12:42:31.933Z,101298.53
2017-12-24T12:44:59.571Z,101299.09
2017-12-24T12:47:27.190Z,101305.19
2017-12-24T12:49:54.795Z,101296.59
2017-12-24T12:52:22.393Z,101289.67
2017-12-24T12:54:50.033Z,101286.59
2017-12-24T12:57:17.672Z,101288.11
2017-12-24T12:59:45.338Z,101286.06
2017-12-24T13:02:12.924Z,101277.02
2017-12-24T13:04:40.549Z,101277.67
2017-12-24T13:07:08.192Z,101285.03
2017-12-24T13:09:35.804Z,101271.85
2017-12-24T13:12:03.537Z,101278.20
2017-12-24T13:14:31.444Z,101275.19
2017-12-24T13:16:59.064Z,101261.67
2017-12-24T13:19:26.727Z,101266.09
2017-12-24T13:21:54.321Z,101262.42
2017-12-24T13:24:22.009Z,101255.77
2017-12-24T13:26:49.607Z,101247.27
2017-12-24T13:29:17.222Z,101237.84
2017-12-24T13:31:44.849Z,101242.59
2017-12-24T13:34:12.490Z,101245.92
2017-12-24T13:36:40.455Z,101244.50
2017-12-24T13:39:08.056Z,101254.76
2017-12-24T13:41:35.682Z,101247.66
2017-12-24T13:44:03.344Z,101244.61
2017-12-24T13:46:30.961Z,101250.51
2017-12-24T13:48:58.587Z,101247.66
2017-12-24T13:51:26.180Z,101247.07
2017-12-24T13:53:53.787Z,101247.08
2017-12-24T13:56:21.414Z,101242.76
2017-12-24T13:58:49.005Z,101237.58
2017-12-24T14:01:16.665Z,101231.98
2017-12-24T14:03:44.505Z,101236.92
2017-12-24T14:06:12.128Z,101245.91
2017-12-24T14:08:39.767Z,101237.24
2017-12-24T14:11:07.362Z,101243.24
2017-12-24T14:13:35.005Z,101235.33
2017-12-24T14:16:02.637Z,101233.42
2017-12-24T14:18:30.233Z,101226.41
2017-12-24T14:20:57.916Z,101226.92
2017-12-24T14:23:25.532Z,101228.48
2017-12-24T14:25:53.214Z,101234.16
2017-12-24T14:28:21.149Z,101241.50
2017-12-24T14:30:48.750Z,101244.82
2017-12-24T14:33:16.392Z,101239.33
2017-12-24T14:35:44.031Z,101235.41
2017-12-24T14:38:11.643Z,101234.83
2017-12-24T14:40:39.294Z,101232.77
2017-12-24T14:43:06.946Z,101238.34
2017-12-24T14:45:35.031Z,101231.06
2017-12-24T14:48:02.670Z,101238.09
2017-12-24T14:50:30.269Z,101243.93
2017-12-24T14:52:57.875Z,101230.34
2017-12-24T14:55:25.535Z,101226.74
2017-12-24T14:57:53.605Z,101225.91
2017-12-24T15:00:21.581Z,101228.99
2017-12-24T15:02:49.162Z,101223.81
2017-12-24T15:05:16.801Z,101220.07
2017-12-24T15:07:44.440Z,101225.84
2017-12-24T15:10:12.051Z,101218.97
2017-12-24T15:12:39.991Z,101217.48
2017-12-24T15:15:07.579Z,101221.16
2017-12-24T15:17:35.178Z,101207.96
2017-12-24T15:20:02.804Z,101207.55
2017-12-24T15:22:30.427Z,101211.05
2017-12-24T15:24:58.120Z,101218.75
2017-12-24T15:27:25.867Z,101211.81
2017-12-24T15:29:53.468Z,101219.49
2017-12-24T15:32:21.096Z,101216.99
2017-12-24T15:34:48.730Z,101213.41
2017-12-24T15:37:16.345Z,101218.81
2017-12-24T15:39:43.932Z,101211.48
2017-12-24T15:42:11.563Z,101225.00
2017-12-24T15:44:39.158Z,101215.06
2017-12-24T15:47:07.066Z,101209.48
2017-12-24T15:49:34.689Z,101223.33
2017-12-24T15:52:02.275Z,101230.16
2017-12-24T15:54:29.935Z,101209.30
2017-12-24T15:56:57.551Z,101203.54
2017-12-24T15:59:25.188Z,101207.23
2017-12-24T16:01:52.809Z,101209.56
2017-12-24T16:04:20.403Z,101214.73
2017-12-24T16:06:48.111Z,101211.40
2017-12-24T16:09:15.707Z,101213.57
2017-12-24T16:11:43.292Z,101226.66
2017-12-24T16:14:11.261Z,101222.39
2017-12-24T16:16:38.878Z,101226.22
2017-12-24T16:19:06.515Z,101223.55
2017-12-24T16:21:34.112Z,101224.08
2017-12-24T16:24:01.708Z,101218.04
2017-12-24T16:26:29.319Z,101214.88
2017-12-24T16:28:56.925Z,101216.11
2017-12-24T16:31:24.556Z,101221.47
2017-12-24T16:33:52.198Z,101211.72
2017-12-24T16:36:19.776Z,101210.64
2017-12-24T16:38:47.473Z,101209.89
2017-12-24T16:41:15.121Z,101203.55
2017-12-24T16:43:42.768Z,101215.46
2017-12-24T16:46:10.403Z,101206.38
2017-12-24T16:48:38.012Z,101201.78
2017-12-24T16:51:05.904Z,101196.45
2017-12-24T16:53:33.508Z,101202.95
2017-12-24T16:56:01.145Z,101183.88
2017-12-24T16:58:28.735Z,101197.96
2017-12-24T17:00:56.657Z,101195.28
2017-12-24T17:03:24.293Z,101186.53
2017-12-24T17:05:51.897Z,101188.44
2017-12-24T17:08:19.531Z,101185.96
2017-12-24T17:10:47.135Z,101190.06
2017-12-24T17:13:14.757Z,101192.60
2017-12-24T17:15:42.372Z,101182.77
2017-12-24T17:18:10.401Z,101190.19
2017-12-24T17:20:38.034Z,101181.61
2017-12-24T17:23:05.621Z,101196.36
2017-12-24T17:25:33.236Z,101191.77
2017-12-24T17:28:01.155Z,101199.06
2017-12-24T17:30:29.855Z,101203.72
2017-12-24T17:32:57.501Z,101200.32
2017-12-24T17:35:25.085Z,101192.52
2017-12-24T17:37:52.662Z,101198.64
2017-12-24T17:40:20.296Z,101197.05
2017-12-24T17:42:47.912Z,101209.00
2017-12-24T17:45:15.536Z,101204.58
2017-12-24T17:47:43.221Z,101212.06
2017-12-24T17:50:10.808Z,101207.38
2017-12-24T17:52:38.444Z,101214.80
2017-12-24T17:55:06.062Z,101225.81
2017-12-24T17:57:34.032Z,101216.66
2017-12-24T18:00:01.899Z,101207.48
2017-12-24T18:02:29.764Z,101220.90
2017-12-24T18:04:57.387Z,101221.70
2017-12-24T18:07:24.970Z,101209.05
2017-12-24T18:09:52.860Z,101210.66
2017-12-24T18:12:20.444Z,101213.42
2017-12-24T18:14:48.036Z,101224.13
2017-12-24T18:17:15.646Z,101212.41
2017-12-24T18:19:43.477Z,101230.95
2017-12-24T18:22:11.104Z,101210.64
2017-12-24T18:24:38.700Z,101217.10
2017-12-24T18:27:06.283Z,101215.06
2017-12-24T18:29:33.934Z,101208.73
2017-12-24T18:32:01.587Z,101204.72
2017-12-24T18:34:29.226Z,101206.39
2017-12-24T18:36:56.949Z,101210.73
2017-12-24T18:39:24.548Z,101206.23
2017-12-24T18:41:52.156Z,101209.63
2017-12-24T18:44:20.245Z,101220.97
2017-12-24T18:46:47.877Z,101212.27
2017-12-24T18:49:15.620Z,101211.40
2017-12-24T18:51:43.541Z,101218.05
2017-12-24T18:54:11.156Z,101204.30
2017-12-24T18:56:38.750Z,101205.39
2017-12-24T18:59:06.395Z,101195.30
2017-12-24T19:01:35.366Z,101196.41
2017-12-24T19:04:03.507Z,101187.16
2017-12-24T19:06:31.190Z,101180.56
2017-12-24T19:08:58.846Z,101176.30
2017-12-24T19:11:26.602Z,101185.39
2017-12-24T19:13:54.224Z,101179.72
2017-12-24T19:16:21.828Z,101184.66
2017-12-24T19:18:49.440Z,101184.55
2017-12-24T19:21:17.044Z,101178.48
2017-12-24T19:23:44.664Z,101174.28
2017-12-24T19:26:12.264Z,101178.48
2017-12-24T19:28:40.133Z,101181.30
2017-12-24T19:31:07.747Z,101181.19
2017-12-24T19:33:35.667Z,101180.27
2017-12-24T19:36:03.392Z,101181.84
2017-12-24T19:38:30.989Z,101182.20
2017-12-24T19:40:58.591Z,101194.70
2017-12-24T19:43:26.209Z,101186.70
2017-12-24T19:45:53.814Z,101191.53
2017-12-24T19:48:21.740Z,101191.30
2017-12-24T19:50:49.334Z,101191.55
2017-12-24T19:53:17.048Z,101193.63
2017-12-24T19:55:44.661Z,101193.20
2017-12-24T19:58:12.284Z,101194.20
2017-12-24T20:00:40.166Z,101188.89
2017-12-24T20:03:08.032Z,101190.70
2017-12-24T20:05:35.695Z,101197.86
2017-12-24T20:08:03.308Z,101195.39
2017-12-24T20:10:30.897Z,101190.95
2017-12-24T20:12:58.543Z,101189.38
2017-12-24T20:15:26.366Z,101197.20
2017-12-24T20:17:53.968Z,101192.13
2017-12-24T20:20:21.875Z,101207.13
2017-12-24T20:22:49.537Z,101209.14
2017-12-24T20:25:17.176Z,101191.05
2017-12-24T20:27:44.772Z,101193.64
2017-12-24T20:30:12.624Z,101200.88
2017-12-24T20:32:40.272Z,101203.62
2017-12-24T20:35:07.860Z,101197.13
2017-12-24T20:37:35.508Z,101207.80
2017-12-24T20:40:03.102Z,101194.45
2017-12-24T20:42:30.698Z,101179.53
2017-12-24T20:44:58.316Z,101186.04
2017-12-24T20:47:25.920Z,101181.63
2017-12-24T20:49:53.548Z,101183.79
2017-12-24T20:52:21.159Z,101181.20
2017-12-24T20:54:48.749Z,101182.12
2017-12-24T20:57:16.386Z,101180.78
2017-12-24T20:59:44.029Z,101180.80
2017-12-24T21:02:11.671Z,101194.38
2017-12-24T21:04:39.269Z,101191.20
2017-12-24T21:07:06.902Z,101190.95
2017-12-24T21:09:34.824Z,101189.45
2017-12-24T21:12:02.501Z,101192.70
2017-12-24T21:14:30.126Z,101184.62
2017-12-24T21:16:57.725Z,101189.70
2017-12-24T21:19:25.604Z,101194.72
2017-12-24T21:21:53.230Z,101199.20
2017-12-24T21:24:20.875Z,101193.61
2017-12-24T21:26:48.533Z,101197.95
2017-12-24T21:29:16.123Z,101196.78
2017-12-24T21:31:43.704Z,101198.77
2017-12-24T21:34:11.344Z,101195.11
2017-12-24T21:36:38.970Z,101199.69
2017-12-24T21:39:06.638Z,101193.02
2017-12-24T21:41:34.234Z,101188.86
2017-12-24T21:44:01.855Z,101190.64
2017-12-24T21:46:29.498Z,101201.12
2017-12-24T21:48:57.103Z,101200.29
2017-12-24T21:51:24.704Z,101191.88
2017-12-24T21:53:52.330Z,101190.70
2017-12-24T21:56:19.927Z,101180.19
2017-12-24T21:58:47.514Z,101187.11
2017-12-24T22:01:15.141Z,101190.45
2017-12-24T22:03:42.737Z,101187.03
2017-12-24T22:06:10.371Z,101187.78
2017-12-24T22:08:37.977Z,101191.89
2017-12-24T22:11:05.570Z,101180.61
2017-12-24T22:13:33.184Z,101185.78
2017-12-24T22:16:00.830Z,101183.53
2017-12-24T22:18:28.493Z,101184.37
2017-12-24T22:20:56.087Z,101198.71
2017-12-24T22:23:23.686Z,101184.03
2017-12-24T22:25:51.667Z,101182.53
2017-12-24T22:28:19.266Z,101188.53
2017-12-24T22:30:46.909Z,101185.30
2017-12-24T22:33:14.534Z,101191.14
2017-12-24T22:35:42.136Z,101185.53
2017-12-24T22:38:09.752Z,101196.95
2017-12-24T22:40:37.374Z,101194.47
2017-12-24T22:43:05.015Z,101195.39
2017-12-24T22:45:32.615Z,101206.73
2017-12-24T22:48:00.238Z,101200.40
2017-12-24T22:50:27.888Z,101206.38
2017-12-24T22:52:55.492Z,101209.30
2017-12-24T22:55:23.455Z,101200.14
2017-12-24T22:57:51.067Z,101211.72
2017-12-24T23:00:18.709Z,101227.80
2017-12-24T23:02:46.332Z,101211.23
2017-12-24T23:05:13.950Z,101216.56
2017-12-24T23:07:41.607Z,101227.73
2017-12-24T23:10:09.200Z,101215.98
2017-12-24T23:12:36.801Z,101208.55
2017-12-24T23:15:04.436Z,101214.08
2017-12-24T23:17:32.019Z,101207.30
2017-12-24T23:19:59.948Z,101218.55
2017-12-24T23:22:27.545Z,101211.97
2017-12-24T23:24:55.138Z,101218.15
2017-12-24T23:27:22.763Z,101221.64
2017-12-24T23:29:50.717Z,101225.08
2017-12-24T23:32:18.356Z,101222.89
2017-12-24T23:34:45.987Z,101222.82
2017-12-24T23:37:13.571Z,101226.75
2017-12-24T23:39:41.178Z,101225.30
2017-12-24T23:42:09.122Z,101229.15
2017-12-24T23:44:36.753Z,101226.16
2017-12-24T23:47:04.345Z,101217.72
2017-12-24T23:49:31.924Z,101237.92
2017-12-24T23:51:59.876Z,101228.25
2017-12-24T23:54:27.745Z,101225.06
2017-12-24T23:56:55.394Z,101226.47
2017-12-24T23:59:22.990Z,101224.49
